sensor_id;sensor_type;location;lat;lon;timestamp;pressure;altitude;pressure_sealevel;temperature;humidity
71976;BME280;60680;52.182;5.398;2022-09-27T00:00:05;99703.28;;;10.57;90.39
71976;BME280;60680;52.182;5.398;2022-09-27T00:02:31;99711.91;;;10.57;90.75
71976;BME280;60680;52.182;5.398;2022-09-27T00:04:58;99701.63;;;10.56;90.86
71976;BME280;60680;52.182;5.398;2022-09-27T00:07:24;99705.81;;;10.58;90.75
71976;BME280;60680;52.182;5.398;2022-09-27T00:09:51;99710.28;;;10.56;90.93
71976;BME280;60680;52.182;5.398;2022-09-27T00:12:17;99704.22;;;10.56;91.09
71976;BME280;60680;52.182;5.398;2022-09-27T00:14:44;99711.19;;;10.55;90.97
71976;BME280;60680;52.182;5.398;2022-09-27T00:17:10;99702.56;;;10.55;90.86
71976;BME280;60680;52.182;5.398;2022-09-27T00:19:36;99704.22;;;10.56;91.35
71976;BME280;60680;52.182;5.398;2022-09-27T00:22:03;99712.25;;;10.53;91.21
71976;BME280;60680;52.182;5.398;2022-09-27T00:24:29;99716.63;;;10.52;91.14
71976;BME280;60680;52.182;5.398;2022-09-27T00:26:56;99707.13;;;10.51;91.04
71976;BME280;60680;52.182;5.398;2022-09-27T00:29:23;99706.31;;;10.51;91.70
71976;BME280;60680;52.182;5.398;2022-09-27T00:31:49;99704.75;;;10.48;91.11
71976;BME280;60680;52.182;5.398;2022-09-27T00:34:23;99709.00;;;10.49;91.35
71976;BME280;60680;52.182;5.398;2022-09-27T00:36:51;99704.03;;;10.46;91.28
71976;BME280;60680;52.182;5.398;2022-09-27T00:39:18;99704.84;;;10.47;91.78
71976;BME280;60680;52.182;5.398;2022-09-27T00:41:45;99705.91;;;10.44;91.41
71976;BME280;60680;52.182;5.398;2022-09-27T00:47:02;99709.31;;;10.45;91.12
71976;BME280;60680;52.182;5.398;2022-09-27T00:52:37;99709.44;;;10.43;91.44
71976;BME280;60680;52.182;5.398;2022-09-27T00:55:15;99710.47;;;10.40;91.80
71976;BME280;60680;52.182;5.398;2022-09-27T00:57:43;99713.47;;;10.34;91.04
71976;BME280;60680;52.182;5.398;2022-09-27T01:00:12;99714.44;;;10.33;90.71
71976;BME280;60680;52.182;5.398;2022-09-27T01:02:44;99713.72;;;10.31;91.29
71976;BME280;60680;52.182;5.398;2022-09-27T01:05:14;99719.06;;;10.28;90.71
71976;BME280;60680;52.182;5.398;2022-09-27T01:07:41;99721.78;;;10.27;91.18
71976;BME280;60680;52.182;5.398;2022-09-27T01:10:08;99723.75;;;10.23;90.61
71976;BME280;60680;52.182;5.398;2022-09-27T01:12:56;99722.06;;;10.22;90.96
71976;BME280;60680;52.182;5.398;2022-09-27T01:15:34;99719.47;;;10.22;91.06
71976;BME280;60680;52.182;5.398;2022-09-27T01:18:19;99727.28;;;10.22;90.66
71976;BME280;60680;52.182;5.398;2022-09-27T01:22:07;99728.31;;;10.19;90.65
71976;BME280;60680;52.182;5.398;2022-09-27T01:24:13;99735.50;;;10.16;90.47
71976;BME280;60680;52.182;5.398;2022-09-27T01:27:17;99735.50;;;10.16;91.06
71976;BME280;60680;52.182;5.398;2022-09-27T01:30:13;99732.28;;;10.12;90.69
71976;BME280;60680;52.182;5.398;2022-09-27T01:32:49;99730.72;;;10.10;91.30
71976;BME280;60680;52.182;5.398;2022-09-27T01:38:20;99746.50;;;10.07;90.13
71976;BME280;60680;52.182;5.398;2022-09-27T01:43:41;99739.84;;;10.03;90.52
71976;BME280;60680;52.182;5.398;2022-09-27T01:46:17;99747.84;;;9.99;90.50
71976;BME280;60680;52.182;5.398;2022-09-27T01:48:47;99747.94;;;9.98;90.47
71976;BME280;60680;52.182;5.398;2022-09-27T01:51:16;99744.59;;;9.96;90.37
71976;BME280;60680;52.182;5.398;2022-09-27T01:53:51;99744.59;;;9.96;91.15
71976;BME280;60680;52.182;5.398;2022-09-27T01:56:26;99742.09;;;9.94;90.84
71976;BME280;60680;52.182;5.398;2022-09-27T01:59:04;99743.78;;;9.95;91.44
71976;BME280;60680;52.182;5.398;2022-09-27T02:01:43;99731.59;;;9.96;91.43
71976;BME280;60680;52.182;5.398;2022-09-27T02:04:13;99730.16;;;9.92;90.61
71976;BME280;60680;52.182;5.398;2022-09-27T02:06:45;99733.06;;;9.87;90.61
71976;BME280;60680;52.182;5.398;2022-09-27T02:09:19;99733.88;;;9.88;91.16
71976;BME280;60680;52.182;5.398;2022-09-27T02:11:53;99730.44;;;9.87;91.16
71976;BME280;60680;52.182;5.398;2022-09-27T02:14:34;99731.19;;;9.89;90.90
71976;BME280;60680;52.182;5.398;2022-09-27T02:17:22;99729.63;;;9.87;91.06
71976;BME280;60680;52.182;5.398;2022-09-27T02:22:38;99727.03;;;9.87;90.89
71976;BME280;60680;52.182;5.398;2022-09-27T02:28:05;99722.88;;;9.84;90.27
71976;BME280;60680;52.182;5.398;2022-09-27T02:30:38;99723.88;;;9.82;90.82
71976;BME280;60680;52.182;5.398;2022-09-27T02:33:04;99724.91;;;9.79;90.52
71976;BME280;60680;52.182;5.398;2022-09-27T02:35:33;99724.00;;;9.80;90.88
71976;BME280;60680;52.182;5.398;2022-09-27T02:38:01;99721.41;;;9.80;90.98
71976;BME280;60680;52.182;5.398;2022-09-27T02:40:33;99717.13;;;9.79;90.50
71976;BME280;60680;52.182;5.398;2022-09-27T02:43:02;99721.59;;;9.77;91.11
71976;BME280;60680;52.182;5.398;2022-09-27T02:51:10;99720.25;;;9.71;91.09
71976;BME280;60680;52.182;5.398;2022-09-27T02:56:31;99714.31;;;9.69;90.80
71976;BME280;60680;52.182;5.398;2022-09-27T03:04:38;99718.13;;;9.64;91.11
71976;BME280;60680;52.182;5.398;2022-09-27T03:07:06;99718.44;;;9.59;91.17
71976;BME280;60680;52.182;5.398;2022-09-27T03:09:45;99715.84;;;9.59;91.18
71976;BME280;60680;52.182;5.398;2022-09-27T03:12:14;99717.59;;;9.58;90.91
71976;BME280;60680;52.182;5.398;2022-09-27T03:14:45;99720.19;;;9.58;90.78
71976;BME280;60680;52.182;5.398;2022-09-27T03:17:12;99715.91;;;9.57;90.33
71976;BME280;60680;52.182;5.398;2022-09-27T03:19:39;99720.28;;;9.57;91.67
71976;BME280;60680;52.182;5.398;2022-09-27T03:22:05;99711.69;;;9.56;91.74
71976;BME280;60680;52.182;5.398;2022-09-27T03:24:32;99710.00;;;9.55;91.28
71976;BME280;60680;52.182;5.398;2022-09-27T03:26:59;99720.47;;;9.54;91.03
71976;BME280;60680;52.182;5.398;2022-09-27T03:29:25;99722.25;;;9.53;91.10
71976;BME280;60680;52.182;5.398;2022-09-27T03:31:52;99717.13;;;9.52;90.88
71976;BME280;60680;52.182;5.398;2022-09-27T03:34:18;99709.47;;;9.50;90.90
71976;BME280;60680;52.182;5.398;2022-09-27T03:36:45;99719.72;;;9.52;91.35
71976;BME280;60680;52.182;5.398;2022-09-27T03:39:11;99714.53;;;9.52;90.72
71976;BME280;60680;52.182;5.398;2022-09-27T03:41:38;99718.16;;;9.49;90.82
71976;BME280;60680;52.182;5.398;2022-09-27T03:44:04;99719.94;;;9.49;91.21
71976;BME280;60680;52.182;5.398;2022-09-27T03:46:31;99718.16;;;9.49;90.55
71976;BME280;60680;52.182;5.398;2022-09-27T03:48:58;99733.03;;;9.47;90.05
71976;BME280;60680;52.182;5.398;2022-09-27T03:51:25;99727.09;;;9.45;90.30
71976;BME280;60680;52.182;5.398;2022-09-27T03:53:52;99732.28;;;9.45;90.23
71976;BME280;60680;52.182;5.398;2022-09-27T03:56:19;99731.47;;;9.45;90.16
71976;BME280;60680;52.182;5.398;2022-09-27T03:58:46;99741.94;;;9.43;90.28
71976;BME280;60680;52.182;5.398;2022-09-27T04:01:12;99739.53;;;9.40;90.13
71976;BME280;60680;52.182;5.398;2022-09-27T04:03:39;99733.63;;;9.38;90.03
71976;BME280;60680;52.182;5.398;2022-09-27T04:06:06;99731.94;;;9.37;90.66
71976;BME280;60680;52.182;5.398;2022-09-27T04:08:33;99735.47;;;9.36;90.68
71976;BME280;60680;52.182;5.398;2022-09-27T04:11:00;99738.97;;;9.35;89.78
71976;BME280;60680;52.182;5.398;2022-09-27T04:13:26;99732.88;;;9.36;90.18
71976;BME280;60680;52.182;5.398;2022-09-27T04:15:53;99732.06;;;9.35;90.34
71976;BME280;60680;52.182;5.398;2022-09-27T04:18:20;99728.91;;;9.30;89.81
71976;BME280;60680;52.182;5.398;2022-09-27T04:20:47;99727.25;;;9.29;89.60
71976;BME280;60680;52.182;5.398;2022-09-27T04:23:13;99727.16;;;9.31;89.90
71976;BME280;60680;52.182;5.398;2022-09-27T04:25:40;99728.91;;;9.30;90.18
71976;BME280;60680;52.182;5.398;2022-09-27T04:28:06;99729.94;;;9.28;89.43
71976;BME280;60680;52.182;5.398;2022-09-27T04:30:33;99736.97;;;9.26;89.45
71976;BME280;60680;52.182;5.398;2022-09-27T04:33:00;99736.16;;;9.25;90.21
71976;BME280;60680;52.182;5.398;2022-09-27T04:35:26;99742.16;;;9.26;89.87
71976;BME280;60680;52.182;5.398;2022-09-27T04:38:11;99739.56;;;9.26;89.45
71976;BME280;60680;52.182;5.398;2022-09-27T04:40:39;99741.25;;;9.27;90.47
71976;BME280;60680;52.182;5.398;2022-09-27T04:43:07;99742.16;;;9.26;89.89
71976;BME280;60680;52.182;5.398;2022-09-27T04:45:34;99744.75;;;9.26;89.94
71976;BME280;60680;52.182;5.398;2022-09-27T04:48:01;99742.38;;;9.23;90.08
71976;BME280;60680;52.182;5.398;2022-09-27T04:50:28;99739.78;;;9.23;89.84
71976;BME280;60680;52.182;5.398;2022-09-27T04:52:59;99744.13;;;9.22;90.24
71976;BME280;60680;52.182;5.398;2022-09-27T04:55:26;99738.09;;;9.22;89.58
71976;BME280;60680;52.182;5.398;2022-09-27T04:57:53;99740.69;;;9.22;90.28
71976;BME280;60680;52.182;5.398;2022-09-27T05:00:20;99751.91;;;9.22;90.10
71976;BME280;60680;52.182;5.398;2022-09-27T05:02:46;99741.50;;;9.22;90.37
71976;BME280;60680;52.182;5.398;2022-09-27T05:05:14;99737.91;;;9.25;90.39
71976;BME280;60680;52.182;5.398;2022-09-27T05:07:41;99738.75;;;9.25;90.50
71976;BME280;60680;52.182;5.398;2022-09-27T05:10:08;99737.19;;;9.23;89.79
71976;BME280;60680;52.182;5.398;2022-09-27T05:12:36;99744.13;;;9.22;90.54
71976;BME280;60680;52.182;5.398;2022-09-27T05:15:03;99736.31;;;9.22;90.23
71976;BME280;60680;52.182;5.398;2022-09-27T05:17:29;99747.75;;;9.19;89.98
71976;BME280;60680;52.182;5.398;2022-09-27T05:19:56;99759.97;;;9.17;89.50
71976;BME280;60680;52.182;5.398;2022-09-27T05:22:23;99758.31;;;9.16;89.94
71976;BME280;60680;52.182;5.398;2022-09-27T05:24:49;99754.78;;;9.17;90.67
71976;BME280;60680;52.182;5.398;2022-09-27T05:27:16;99759.16;;;9.17;90.66
71976;BME280;60680;52.182;5.398;2022-09-27T05:29:46;99751.38;;;9.17;89.81
71976;BME280;60680;52.182;5.398;2022-09-27T05:32:14;99743.50;;;9.18;90.35
71976;BME280;60680;52.182;5.398;2022-09-27T05:34:40;99747.94;;;9.16;89.90
71976;BME280;60680;52.182;5.398;2022-09-27T05:37:07;99748.97;;;9.14;90.33
71976;BME280;60680;52.182;5.398;2022-09-27T05:39:35;99749.72;;;9.16;90.29
71976;BME280;60680;52.182;5.398;2022-09-27T05:42:02;99752.56;;;9.11;90.46
71976;BME280;60680;52.182;5.398;2022-09-27T05:44:30;99749.16;;;9.11;90.62
71976;BME280;60680;52.182;5.398;2022-09-27T05:47:00;99755.16;;;9.11;90.04
71976;BME280;60680;52.182;5.398;2022-09-27T05:49:29;99760.34;;;9.11;90.41
71976;BME280;60680;52.182;5.398;2022-09-27T05:51:56;99758.50;;;9.13;90.43
71976;BME280;60680;52.182;5.398;2022-09-27T05:54:23;99758.50;;;9.13;90.35
71976;BME280;60680;52.182;5.398;2022-09-27T05:56:55;99763.44;;;9.18;90.64
71976;BME280;60680;52.182;5.398;2022-09-27T05:59:26;99765.81;;;9.21;90.53
71976;BME280;60680;52.182;5.398;2022-09-27T06:01:53;99758.84;;;9.22;90.54
71976;BME280;60680;52.182;5.398;2022-09-27T06:04:20;99762.94;;;9.26;91.41
71976;BME280;60680;52.182;5.398;2022-09-27T06:06:47;99751.44;;;9.30;91.17
71976;BME280;60680;52.182;5.398;2022-09-27T06:09:14;99759.88;;;9.33;90.35
71976;BME280;60680;52.182;5.398;2022-09-27T06:11:42;99765.69;;;9.37;90.34
71976;BME280;60680;52.182;5.398;2022-09-27T06:14:13;99775.16;;;9.38;90.35
71976;BME280;60680;52.182;5.398;2022-09-27T06:16:41;99777.09;;;9.34;90.75
71976;BME280;60680;52.182;5.398;2022-09-27T06:19:07;99782.50;;;9.31;91.41
71976;BME280;60680;52.182;5.398;2022-09-27T06:21:34;99786.13;;;9.29;91.94
71976;BME280;60680;52.182;5.398;2022-09-27T06:24:02;99783.91;;;9.23;91.99
71976;BME280;60680;52.182;5.398;2022-09-27T06:26:29;99777.78;;;9.24;92.02
71976;BME280;60680;52.182;5.398;2022-09-27T06:28:55;99780.28;;;9.25;92.59
71976;BME280;60680;52.182;5.398;2022-09-27T06:31:23;99785.38;;;9.27;92.83
71976;BME280;60680;52.182;5.398;2022-09-27T06:33:49;99795.47;;;9.31;93.24
71976;BME280;60680;52.182;5.398;2022-09-27T06:36:16;99788.59;;;9.30;92.61
71976;BME280;60680;52.182;5.398;2022-09-27T06:38:43;99791.31;;;9.29;92.31
71976;BME280;60680;52.182;5.398;2022-09-27T06:41:12;99785.19;;;9.30;92.34
71976;BME280;60680;52.182;5.398;2022-09-27T06:43:41;99780.72;;;9.32;92.68
71976;BME280;60680;52.182;5.398;2022-09-27T06:46:08;99788.31;;;9.35;92.59
71976;BME280;60680;52.182;5.398;2022-09-27T06:48:35;99793.25;;;9.39;92.98
71976;BME280;60680;52.182;5.398;2022-09-27T06:51:04;99805.94;;;9.44;92.95
71976;BME280;60680;52.182;5.398;2022-09-27T06:53:31;99810.09;;;9.47;93.29
71976;BME280;60680;52.182;5.398;2022-09-27T06:55:59;99811.03;;;9.46;92.39
71976;BME280;60680;52.182;5.398;2022-09-27T06:58:28;99806.03;;;9.43;92.80
71976;BME280;60680;52.182;5.398;2022-09-27T07:01:13;99812.97;;;9.42;93.28
71976;BME280;60680;52.182;5.398;2022-09-27T07:03:40;99807.69;;;9.44;93.54
71976;BME280;60680;52.182;5.398;2022-09-27T07:06:15;99804.06;;;9.46;93.51
71976;BME280;60680;52.182;5.398;2022-09-27T07:08:43;99810.19;;;9.45;93.35
71976;BME280;60680;52.182;5.398;2022-09-27T07:11:10;99804.06;;;9.46;93.25
71976;BME280;60680;52.182;5.398;2022-09-27T07:13:37;99801.47;;;9.46;93.48
71976;BME280;60680;52.182;5.398;2022-09-27T07:16:10;99805.63;;;9.49;93.53
71976;BME280;60680;52.182;5.398;2022-09-27T07:18:41;99806.38;;;9.51;93.53
71976;BME280;60680;52.182;5.398;2022-09-27T07:21:08;99813.22;;;9.52;94.22
71976;BME280;60680;52.182;5.398;2022-09-27T07:23:35;99809.88;;;9.50;93.34
71976;BME280;60680;52.182;5.398;2022-09-27T07:26:03;99812.97;;;9.56;94.09
71976;BME280;60680;52.182;5.398;2022-09-27T07:28:30;99809.25;;;9.61;93.89
71976;BME280;60680;52.182;5.398;2022-09-27T07:30:57;99820.06;;;9.67;93.24
71976;BME280;60680;52.182;5.398;2022-09-27T07:33:24;99818.31;;;9.68;93.12
71976;BME280;60680;52.182;5.398;2022-09-27T07:35:51;99823.50;;;9.68;93.44
71976;BME280;60680;52.182;5.398;2022-09-27T07:38:18;99814.03;;;9.67;93.00
71976;BME280;60680;52.182;5.398;2022-09-27T07:40:45;99830.56;;;9.66;93.19
71976;BME280;60680;52.182;5.398;2022-09-27T07:43:12;99814.03;;;9.67;93.25
71976;BME280;60680;52.182;5.398;2022-09-27T07:45:39;99819.88;;;9.70;93.92
71976;BME280;60680;52.182;5.398;2022-09-27T07:48:07;99821.56;;;9.71;93.82
71976;BME280;60680;52.182;5.398;2022-09-27T07:50:34;99814.88;;;9.67;93.61
71976;BME280;60680;52.182;5.398;2022-09-27T07:53:01;99813.84;;;9.70;93.90
71976;BME280;60680;52.182;5.398;2022-09-27T07:55:27;99819.97;;;9.69;93.47
71976;BME280;60680;52.182;5.398;2022-09-27T07:58:02;99825.16;;;9.69;93.85
71976;BME280;60680;52.182;5.398;2022-09-27T08:00:29;99832.94;;;9.69;93.67
71976;BME280;60680;52.182;5.398;2022-09-27T08:02:56;99835.66;;;9.67;94.13
71976;BME280;60680;52.182;5.398;2022-09-27T08:05:22;99841.69;;;9.68;93.96
71976;BME280;60680;52.182;5.398;2022-09-27T08:07:54;99843.81;;;9.75;93.85
71976;BME280;60680;52.182;5.398;2022-09-27T08:10:29;99836.63;;;9.79;94.10
71976;BME280;60680;52.182;5.398;2022-09-27T08:12:58;99839.16;;;9.80;93.62
71976;BME280;60680;52.182;5.398;2022-09-27T08:15:26;99843.13;;;9.86;94.44
71976;BME280;60680;52.182;5.398;2022-09-27T08:17:54;99843.75;;;9.90;93.35
71976;BME280;60680;52.182;5.398;2022-09-27T08:20:20;99840.31;;;9.89;93.31
71976;BME280;60680;52.182;5.398;2022-09-27T08:22:47;99852.19;;;9.93;93.81
71976;BME280;60680;52.182;5.398;2022-09-27T08:25:14;99851.06;;;9.97;93.34
71976;BME280;60680;52.182;5.398;2022-09-27T08:27:41;99853.47;;;10.00;93.66
71976;BME280;60680;52.182;5.398;2022-09-27T08:30:08;99850.75;;;10.02;93.55
71976;BME280;60680;52.182;5.398;2022-09-27T08:32:35;99866.06;;;10.07;93.88
71976;BME280;60680;52.182;5.398;2022-09-27T08:35:03;99859.66;;;10.12;93.30
71976;BME280;60680;52.182;5.398;2022-09-27T08:37:32;99867.16;;;10.17;93.30
71976;BME280;60680;52.182;5.398;2022-09-27T08:40:00;99865.50;;;10.16;94.56
71976;BME280;60680;52.182;5.398;2022-09-27T08:47:35;99871.16;;;10.08;93.74
71976;BME280;60680;52.182;5.398;2022-09-27T08:52:41;99853.50;;;10.13;94.11
71976;BME280;60680;52.182;5.398;2022-09-27T08:55:23;99854.34;;;10.14;94.42
71976;BME280;60680;52.182;5.398;2022-09-27T08:57:56;99862.44;;;10.09;93.82
71976;BME280;60680;52.182;5.398;2022-09-27T09:00:24;99857.66;;;10.03;92.61
71976;BME280;60680;52.182;5.398;2022-09-27T09:02:50;99859.50;;;10.01;93.39
71976;BME280;60680;52.182;5.398;2022-09-27T09:05:26;99860.13;;;10.05;93.08
71976;BME280;60680;52.182;5.398;2022-09-27T09:08:07;99862.94;;;10.02;92.24
71976;BME280;60680;52.182;5.398;2022-09-27T09:11:15;99865.53;;;10.02;92.37
71976;BME280;60680;52.182;5.398;2022-09-27T09:17:02;99874.59;;;10.09;92.49
71976;BME280;60680;52.182;5.398;2022-09-27T09:27:53;99879.06;;;10.07;92.75
71976;BME280;60680;52.182;5.398;2022-09-27T09:30:42;99884.25;;;10.07;91.97
71976;BME280;60680;52.182;5.398;2022-09-27T09:33:25;99885.19;;;10.06;92.60
71976;BME280;60680;52.182;5.398;2022-09-27T09:38:51;99883.53;;;10.05;91.97
71976;BME280;60680;52.182;5.398;2022-09-27T09:44:00;99888.31;;;10.11;92.88
71976;BME280;60680;52.182;5.398;2022-09-27T09:46:41;99890.00;;;10.12;92.08
71976;BME280;60680;52.182;5.398;2022-09-27T09:49:20;99889.91;;;10.13;92.18
71976;BME280;60680;52.182;5.398;2022-09-27T09:51:51;99891.75;;;10.11;92.48
71976;BME280;60680;52.182;5.398;2022-09-27T09:54:27;99889.06;;;10.13;92.93
71976;BME280;60680;52.182;5.398;2022-09-27T09:57:05;99893.34;;;10.14;92.81
71976;BME280;60680;52.182;5.398;2022-09-27T09:59:42;99894.09;;;10.16;92.42
71976;BME280;60680;52.182;5.398;2022-09-27T10:02:25;99899.00;;;10.20;92.75
71976;BME280;60680;52.182;5.398;2022-09-27T10:04:54;99900.75;;;10.20;92.40
71976;BME280;60680;52.182;5.398;2022-09-27T10:07:22;99901.47;;;10.22;92.39
71976;BME280;60680;52.182;5.398;2022-09-27T10:09:55;99897.00;;;10.24;93.14
71976;BME280;60680;52.182;5.398;2022-09-27T10:12:24;99891.19;;;10.20;92.36
71976;BME280;60680;52.182;5.398;2022-09-27T10:14:52;99898.78;;;10.24;92.10
71976;BME280;60680;52.182;5.398;2022-09-27T10:17:23;99888.38;;;10.24;92.14
71976;BME280;60680;52.182;5.398;2022-09-27T10:19:51;99884.66;;;10.28;92.81
71976;BME280;60680;52.182;5.398;2022-09-27T10:22:30;99889.50;;;10.34;92.35
71976;BME280;60680;52.182;5.398;2022-09-27T10:25:00;99887.84;;;10.33;91.65
71976;BME280;60680;52.182;5.398;2022-09-27T10:27:43;99889.09;;;10.40;92.42
71976;BME280;60680;52.182;5.398;2022-09-27T10:30:26;99889.28;;;10.37;92.33
71976;BME280;60680;52.182;5.398;2022-09-27T10:32:57;99890.31;;;10.34;91.61
71976;BME280;60680;52.182;5.398;2022-09-27T10:40:38;99884.19;;;10.35;90.95
71976;BME280;60680;52.182;5.398;2022-09-27T10:43:33;99886.97;;;10.32;91.68
71976;BME280;60680;52.182;5.398;2022-09-27T10:48:35;99886.06;;;10.33;91.34
71976;BME280;60680;52.182;5.398;2022-09-27T10:51:06;99876.28;;;10.37;91.53
71976;BME280;60680;52.182;5.398;2022-09-27T10:53:35;99872.34;;;10.44;91.49
71976;BME280;60680;52.182;5.398;2022-09-27T10:56:02;99875.78;;;10.45;90.31
71976;BME280;60680;52.182;5.398;2022-09-27T11:01:06;99893.09;;;10.58;90.71
71976;BME280;60680;52.182;5.398;2022-09-27T11:03:37;99893.19;;;10.57;91.25
71976;BME280;60680;52.182;5.398;2022-09-27T11:08:51;99899.94;;;10.47;89.95
71976;BME280;60680;52.182;5.398;2022-09-27T11:11:27;99897.31;;;10.47;89.84
71976;BME280;60680;52.182;5.398;2022-09-27T11:13:59;99897.84;;;10.52;90.37
71976;BME280;60680;52.182;5.398;2022-09-27T11:19:25;99911.56;;;10.41;90.21
71976;BME280;60680;52.182;5.398;2022-09-27T11:24:27;99911.03;;;10.36;90.31
71976;BME280;60680;52.182;5.398;2022-09-27T11:47:16;99887.31;;;10.40;90.77
71976;BME280;60680;52.182;5.398;2022-09-27T11:57:44;99878.88;;;10.37;89.76
71976;BME280;60680;52.182;5.398;2022-09-27T12:10:31;99892.47;;;10.68;90.88
71976;BME280;60680;52.182;5.398;2022-09-27T12:12:59;99887.78;;;10.60;89.64
71976;BME280;60680;52.182;5.398;2022-09-27T12:15:28;99886.03;;;10.60;90.44
71976;BME280;60680;52.182;5.398;2022-09-27T12:18:08;99898.41;;;10.57;89.75
71976;BME280;60680;52.182;5.398;2022-09-27T12:20:36;99898.28;;;10.46;89.54
71976;BME280;60680;52.182;5.398;2022-09-27T12:23:19;99909.41;;;10.48;90.14
71976;BME280;60680;52.182;5.398;2022-09-27T12:25:49;99913.31;;;10.40;90.05
71976;BME280;60680;52.182;5.398;2022-09-27T12:28:34;99912.91;;;10.34;90.31
71976;BME280;60680;52.182;5.398;2022-09-27T12:31:17;99920.03;;;10.30;90.24
71976;BME280;60680;52.182;5.398;2022-09-27T12:34:20;99915.84;;;10.28;90.71
71976;BME280;60680;52.182;5.398;2022-09-27T12:36:57;99918.66;;;10.25;90.79
71976;BME280;60680;52.182;5.398;2022-09-27T12:42:16;99911.38;;;10.03;89.66
71976;BME280;60680;52.182;5.398;2022-09-27T12:44:44;99915.78;;;9.88;90.97
71976;BME280;60680;52.182;5.398;2022-09-27T12:53:04;99900.81;;;9.91;92.69
71976;BME280;60680;52.182;5.398;2022-09-27T13:01:06;99891.84;;;9.83;93.18
71976;BME280;60680;52.182;5.398;2022-09-27T13:07:05;99894.75;;;9.78;93.33
71976;BME280;60680;52.182;5.398;2022-09-27T13:12:22;99894.09;;;9.74;93.91
71976;BME280;60680;52.182;5.398;2022-09-27T13:15:03;99900.97;;;9.75;93.40
71976;BME280;60680;52.182;5.398;2022-09-27T13:23:04;99887.56;;;9.82;94.25
71976;BME280;60680;52.182;5.398;2022-09-27T13:25:50;99878.56;;;9.87;94.37
71976;BME280;60680;52.182;5.398;2022-09-27T13:31:11;99889.16;;;9.84;93.73
71976;BME280;60680;52.182;5.398;2022-09-27T13:33:52;99883.22;;;9.82;93.22
71976;BME280;60680;52.182;5.398;2022-09-27T13:41:53;99871.13;;;10.23;92.90
71976;BME280;60680;52.182;5.398;2022-09-27T13:49:56;99875.88;;;10.43;91.64
71976;BME280;60680;52.182;5.398;2022-09-27T13:54:55;99870.63;;;10.70;91.82
71976;BME280;60680;52.182;5.398;2022-09-27T13:57:52;99860.13;;;10.85;90.79
71976;BME280;60680;52.182;5.398;2022-09-27T14:00:31;99858.69;;;10.93;90.27
71976;BME280;60680;52.182;5.398;2022-09-27T14:05:46;99848.69;;;11.00;90.15
71976;BME280;60680;52.182;5.398;2022-09-27T14:08:29;99842.66;;;10.99;88.55
71976;BME280;60680;52.182;5.398;2022-09-27T14:10:58;99839.22;;;10.86;88.11
71976;BME280;60680;52.182;5.398;2022-09-27T14:13:27;99847.75;;;10.88;88.14
71976;BME280;60680;52.182;5.398;2022-09-27T14:15:59;99836.72;;;10.85;87.42
71976;BME280;60680;52.182;5.398;2022-09-27T14:18:28;99842.56;;;10.88;88.17
71976;BME280;60680;52.182;5.398;2022-09-27T14:21:31;99842.00;;;10.96;89.26
71976;BME280;60680;52.182;5.398;2022-09-27T14:24:30;99842.66;;;10.99;89.41
71976;BME280;60680;52.182;5.398;2022-09-27T14:27:17;99840.78;;;11.01;89.28
71976;BME280;60680;52.182;5.398;2022-09-27T14:29:57;99842.09;;;10.94;86.66
71976;BME280;60680;52.182;5.398;2022-09-27T14:32:29;99840.97;;;10.86;87.37
71976;BME280;60680;52.182;5.398;2022-09-27T14:38:03;99839.09;;;10.88;88.40
71976;BME280;60680;52.182;5.398;2022-09-27T14:41:03;99839.41;;;10.83;88.43
71976;BME280;60680;52.182;5.398;2022-09-27T14:43:30;99830.97;;;10.79;88.29
71976;BME280;60680;52.182;5.398;2022-09-27T14:46:01;99830.13;;;10.79;88.49
71976;BME280;60680;52.182;5.398;2022-09-27T14:48:37;99831.91;;;10.78;89.26
71976;BME280;60680;52.182;5.398;2022-09-27T14:51:18;99828.59;;;10.76;89.20
71976;BME280;60680;52.182;5.398;2022-09-27T14:53:51;99833.28;;;10.71;88.97
71976;BME280;60680;52.182;5.398;2022-09-27T14:56:27;99823.88;;;10.69;89.94
71976;BME280;60680;52.182;5.398;2022-09-27T14:59:02;99826.28;;;10.72;89.59
71976;BME280;60680;52.182;5.398;2022-09-27T15:01:29;99823.47;;;10.75;89.05
71976;BME280;60680;52.182;5.398;2022-09-27T15:04:05;99815.34;;;10.79;89.47
71976;BME280;60680;52.182;5.398;2022-09-27T15:06:37;99819.53;;;10.82;89.05
71976;BME280;60680;52.182;5.398;2022-09-27T15:09:04;99818.69;;;10.81;88.61
71976;BME280;60680;52.182;5.398;2022-09-27T15:11:32;99818.81;;;10.80;88.43
71976;BME280;60680;52.182;5.398;2022-09-27T15:14:00;99822.22;;;10.80;88.79
71976;BME280;60680;52.182;5.398;2022-09-27T15:16:29;99816.22;;;10.80;88.73
71976;BME280;60680;52.182;5.398;2022-09-27T15:21:34;99823.06;;;10.81;89.54
71976;BME280;60680;52.182;5.398;2022-09-27T15:24:02;99817.13;;;10.79;88.58
71976;BME280;60680;52.182;5.398;2022-09-27T15:26:40;99814.22;;;10.84;89.88
71976;BME280;60680;52.182;5.398;2022-09-27T15:29:22;99814.94;;;10.86;89.31
71976;BME280;60680;52.182;5.398;2022-09-27T15:32:04;99807.34;;;10.82;89.61
71976;BME280;60680;52.182;5.398;2022-09-27T15:34:33;99799.03;;;10.77;89.59
71976;BME280;60680;52.182;5.398;2022-09-27T15:37:03;99796.44;;;10.77;89.32
71976;BME280;60680;52.182;5.398;2022-09-27T15:39:38;99792.88;;;10.78;90.41
71976;BME280;60680;52.182;5.398;2022-09-27T15:42:07;99794.75;;;10.76;90.85
71976;BME280;60680;52.182;5.398;2022-09-27T15:52:45;99789.03;;;10.71;90.72
71976;BME280;60680;52.182;5.398;2022-09-27T15:55:21;99786.53;;;10.70;90.71
71976;BME280;60680;52.182;5.398;2022-09-27T15:57:54;99788.31;;;10.69;90.04
71976;BME280;60680;52.182;5.398;2022-09-27T16:00:24;99782.38;;;10.67;90.77
71976;BME280;60680;52.182;5.398;2022-09-27T16:02:51;99786.00;;;10.65;91.01
71976;BME280;60680;52.182;5.398;2022-09-27T16:05:19;99777.38;;;10.64;90.92
71976;BME280;60680;52.182;5.398;2022-09-27T16:07:46;99781.84;;;10.62;90.27
71976;BME280;60680;52.182;5.398;2022-09-27T16:10:19;99775.00;;;10.61;90.59
71976;BME280;60680;52.182;5.398;2022-09-27T16:12:49;99778.63;;;10.58;90.68
71976;BME280;60680;52.182;5.398;2022-09-27T16:15:16;99771.13;;;10.54;90.08
71976;BME280;60680;52.182;5.398;2022-09-27T16:17:46;99761.56;;;10.54;90.17